createdAt,value
2023-01-09T00:01:56.514Z,55.20
2023-01-09T00:03:58.499Z,57.80
2023-01-09T00:06:00.247Z,51.65
2023-01-09T00:08:02.629Z,57.97
2023-01-09T00:10:05.686Z,57.42
2023-01-09T00:12:07.576Z,56.20
2023-01-09T00:14:10.980Z,57.70
2023-01-09T00:18:15.084Z,56.58
2023-01-09T00:20:17.167Z,52.95
2023-01-09T00:22:20.127Z,51.17
2023-01-09T00:24:21.850Z,48.67
2023-01-09T00:26:23.589Z,52.55
2023-01-09T00:28:25.744Z,58.20
2023-01-09T00:30:27.777Z,50.10
2023-01-09T00:32:29.640Z,57.30
2023-01-09T00:34:31.487Z,54.95
2023-01-09T00:36:33.435Z,57.25
2023-01-09T00:38:35.190Z,55.40
2023-01-09T00:40:36.947Z,58.67
2023-01-09T00:42:38.846Z,56.05
2023-01-09T00:44:46.424Z,53.90
2023-01-09T00:46:52.117Z,53.97
2023-01-09T00:48:53.978Z,54.17
2023-01-09T00:50:58.970Z,54.70
2023-01-09T00:53:15.801Z,56.28
2023-01-09T00:55:18.053Z,57.15
2023-01-09T00:57:19.788Z,58.08
2023-01-09T00:59:21.787Z,50.67
2023-01-09T01:01:23.886Z,53.95
2023-01-09T01:03:26.429Z,50.97
2023-01-09T01:05:28.195Z,55.50
2023-01-09T01:07:29.911Z,59.03
2023-01-09T01:09:31.724Z,54.92
2023-01-09T01:11:33.937Z,56.08
2023-01-09T01:13:36.755Z,55.40
2023-01-09T01:15:40.191Z,58.75
2023-01-09T01:17:43.386Z,63.00
2023-01-09T01:19:45.352Z,56.03
2023-01-09T01:21:47.037Z,59.35
2023-01-09T01:23:48.968Z,53.92
2023-01-09T01:25:50.743Z,60.63
2023-01-09T01:27:52.741Z,56.28
2023-01-09T01:29:54.616Z,59.33
2023-01-09T01:31:56.665Z,55.15
2023-01-09T01:33:58.374Z,54.60
2023-01-09T01:36:08.686Z,54.80
2023-01-09T01:38:10.427Z,58.65
2023-01-09T01:40:12.730Z,56.95
2023-01-09T01:42:15.154Z,60.25
2023-01-09T01:44:54.083Z,58.00
2023-01-09T01:46:56.879Z,54.88
2023-01-09T01:49:13.244Z,60.87
2023-01-09T01:51:17.245Z,54.58
2023-01-09T01:53:23.943Z,60.22
2023-01-09T01:55:26.208Z,58.65
2023-01-09T01:57:27.997Z,58.28
2023-01-09T01:59:38.736Z,57.97
2023-01-09T02:01:44.624Z,57.05
2023-01-09T02:03:46.468Z,54.88
2023-01-09T02:05:49.182Z,61.28
2023-01-09T02:07:51.159Z,62.33
2023-01-09T02:09:54.090Z,58.85
2023-01-09T02:11:57.890Z,56.40
2023-01-09T02:14:01.259Z,58.17
2023-01-09T02:16:24.225Z,63.25
2023-01-09T02:18:39.790Z,66.47
2023-01-09T02:20:48.284Z,53.72
2023-01-09T02:23:15.896Z,63.05
2023-01-09T02:26:06.729Z,57.22
2023-01-09T02:28:32.997Z,59.08
2023-01-09T02:31:05.464Z,60.22
2023-01-09T02:33:29.817Z,65.97
2023-01-09T02:37:42.004Z,61.63
2023-01-09T02:40:05.272Z,58.40
2023-01-09T02:42:23.689Z,57.45
2023-01-09T02:44:28.490Z,54.53
2023-01-09T02:46:30.282Z,58.30
2023-01-09T02:48:32.557Z,58.40
2023-01-09T02:50:48.032Z,67.20
2023-01-09T02:53:23.283Z,65.78
2023-01-09T02:55:32.419Z,60.33
2023-01-09T02:57:48.896Z,63.70
2023-01-09T03:00:17.125Z,57.22
2023-01-09T03:02:45.617Z,61.08
2023-01-09T03:05:06.116Z,72.50
2023-01-09T03:07:24.155Z,66.32
2023-01-09T03:09:29.467Z,70.07
2023-01-09T03:11:39.391Z,70.20
2023-01-09T03:13:51.813Z,62.05
2023-01-09T03:15:55.106Z,65.80
2023-01-09T03:17:57.739Z,64.82
2023-01-09T03:20:02.747Z,67.32
2023-01-09T03:22:04.872Z,64.82
2023-01-09T03:24:06.736Z,59.75
2023-01-09T03:26:11.425Z,65.60
2023-01-09T03:28:30.968Z,66.75
2023-01-09T03:30:34.621Z,63.80
2023-01-09T03:34:38.109Z,63.22
2023-01-09T03:36:39.833Z,67.55
2023-01-09T03:38:41.613Z,75.57
2023-01-09T03:40:43.503Z,70.13
2023-01-09T03:42:45.244Z,70.35
2023-01-09T03:44:46.927Z,69.57
2023-01-09T03:46:48.776Z,66.47
2023-01-09T03:48:50.537Z,70.25
2023-01-09T03:50:54.033Z,73.03
2023-01-09T03:52:56.016Z,61.55
2023-01-09T03:54:57.714Z,73.80
2023-01-09T03:56:59.551Z,63.42
2023-01-09T03:59:01.280Z,68.28
2023-01-09T04:01:05.991Z,82.55
2023-01-09T04:03:09.696Z,68.82
2023-01-09T04:07:12.996Z,65.80
2023-01-09T04:09:14.846Z,63.95
2023-01-09T04:11:16.924Z,69.13
2023-01-09T04:13:19.057Z,66.30
2023-01-09T04:15:20.881Z,67.35
2023-01-09T04:17:22.651Z,68.13
2023-01-09T04:19:24.346Z,77.05
2023-01-09T04:21:26.297Z,69.18
2023-01-09T04:23:28.208Z,63.95
2023-01-09T04:25:30.315Z,66.75
2023-01-09T04:27:32.235Z,76.35
2023-01-09T04:29:33.966Z,72.70
2023-01-09T04:31:36.443Z,69.85
2023-01-09T04:33:38.235Z,76.45
2023-01-09T04:35:40.270Z,70.25
2023-01-09T04:37:42.172Z,69.70
2023-01-09T04:40:03.414Z,66.82
2023-01-09T04:42:05.251Z,69.78
2023-01-09T04:44:06.987Z,76.38
2023-01-09T04:46:08.912Z,71.35
2023-01-09T04:48:11.123Z,70.18
2023-01-09T04:50:12.990Z,67.18
2023-01-09T04:52:14.837Z,70.20
2023-01-09T04:54:16.673Z,69.97
2023-01-09T04:56:18.419Z,66.45
2023-01-09T04:58:20.390Z,63.47
2023-01-09T05:00:22.340Z,63.50
2023-01-09T05:02:24.074Z,66.28
2023-01-09T05:04:26.185Z,73.07
2023-01-09T05:06:28.127Z,66.15
2023-01-09T05:08:29.902Z,69.07
2023-01-09T05:10:31.708Z,69.10
2023-01-09T05:12:33.563Z,72.65
2023-01-09T05:14:35.227Z,68.32
2023-01-09T05:16:37.176Z,71.32
2023-01-09T05:18:38.877Z,66.22
2023-01-09T05:20:40.547Z,68.18
2023-01-09T05:22:42.383Z,62.17
2023-01-09T05:24:44.060Z,61.88
2023-01-09T05:26:45.751Z,68.55
2023-01-09T05:28:47.613Z,64.75
2023-01-09T05:30:49.340Z,65.90
2023-01-09T05:32:51.018Z,65.65
2023-01-09T05:34:52.888Z,66.78
2023-01-09T05:36:57.640Z,71.43
2023-01-09T05:38:59.411Z,65.47
2023-01-09T05:41:01.180Z,72.15
2023-01-09T05:43:02.973Z,66.55
2023-01-09T05:45:06.104Z,68.15
2023-01-09T05:47:07.893Z,69.47
2023-01-09T05:49:09.817Z,65.32
2023-01-09T05:51:12.627Z,67.50
2023-01-09T05:53:14.496Z,66.05
2023-01-09T05:55:16.382Z,75.47
2023-01-09T05:57:18.134Z,68.30
2023-01-09T05:59:19.976Z,71.32
2023-01-09T06:01:23.667Z,74.65
2023-01-09T06:03:25.700Z,75.28
2023-01-09T06:05:27.587Z,68.22
2023-01-09T06:07:29.449Z,68.20
2023-01-09T06:09:31.389Z,60.00
2023-01-09T06:11:33.407Z,60.58
2023-01-09T06:13:35.086Z,63.08
2023-01-09T06:15:36.801Z,69.18
2023-01-09T06:17:38.585Z,63.70
2023-01-09T06:19:40.301Z,68.22
2023-01-09T06:21:42.207Z,61.92
2023-01-09T06:23:44.094Z,63.97
2023-01-09T06:25:45.785Z,67.25
2023-01-09T06:27:47.625Z,66.82
2023-01-09T06:29:49.578Z,59.75
2023-01-09T06:31:51.258Z,62.22
2023-01-09T06:33:53.432Z,63.75
2023-01-09T06:35:55.182Z,67.57
2023-01-09T06:37:57.072Z,78.15
2023-01-09T06:39:59.232Z,127.03
2023-01-09T06:42:01.238Z,104.53
2023-01-09T06:44:02.914Z,98.13
2023-01-09T06:46:05.010Z,79.65
2023-01-09T06:48:07.139Z,78.47
2023-01-09T06:50:09.584Z,72.38
2023-01-09T06:52:11.437Z,66.95
2023-01-09T06:54:13.230Z,69.28
2023-01-09T06:56:14.909Z,67.50
2023-01-09T06:58:16.973Z,65.22
2023-01-09T07:00:19.153Z,65.43
2023-01-09T07:02:22.148Z,63.80
2023-01-09T07:04:24.053Z,65.72
2023-01-09T07:06:25.775Z,70.47
2023-01-09T07:08:27.436Z,69.78
2023-01-09T07:10:29.372Z,67.70
2023-01-09T07:12:31.055Z,65.75
2023-01-09T07:14:32.849Z,60.53
2023-01-09T07:16:34.556Z,69.60
2023-01-09T07:18:36.252Z,71.28
2023-01-09T07:20:39.836Z,62.15
2023-01-09T07:24:43.361Z,69.25
2023-01-09T07:26:45.100Z,64.82
2023-01-09T07:28:46.955Z,67.20
2023-01-09T07:30:48.929Z,68.68
2023-01-09T07:32:50.592Z,67.20
2023-01-09T07:34:52.258Z,64.00
2023-01-09T07:36:54.342Z,73.00
2023-01-09T07:38:56.014Z,80.07
2023-01-09T07:40:57.669Z,97.70
2023-01-09T07:42:59.705Z,94.30
2023-01-09T07:45:01.401Z,87.55
2023-01-09T07:47:03.127Z,79.93
2023-01-09T07:49:05.481Z,73.97
2023-01-09T07:51:07.201Z,69.05
2023-01-09T07:53:08.925Z,66.28
2023-01-09T07:55:10.830Z,65.90
2023-01-09T07:57:12.592Z,60.63
2023-01-09T07:59:14.366Z,66.10
2023-01-09T08:01:16.717Z,68.80
2023-01-09T08:03:18.515Z,72.10
2023-01-09T08:05:21.094Z,64.97
2023-01-09T08:07:22.832Z,61.60
2023-01-09T08:09:24.608Z,66.40
2023-01-09T08:11:26.665Z,70.95
2023-01-09T08:13:28.676Z,67.05
2023-01-09T08:15:30.419Z,64.60
2023-01-09T08:17:32.117Z,65.32
2023-01-09T08:19:34.030Z,61.53
2023-01-09T08:21:35.741Z,72.63
2023-01-09T08:23:38.026Z,75.85
2023-01-09T08:25:40.315Z,74.38
2023-01-09T08:27:42.050Z,63.38
2023-01-09T08:29:43.758Z,70.97
2023-01-09T08:31:45.680Z,63.85
2023-01-09T08:33:47.425Z,64.00
2023-01-09T08:35:49.212Z,64.75
2023-01-09T08:37:51.097Z,67.82
2023-01-09T08:39:52.939Z,57.65
2023-01-09T08:41:54.623Z,67.00
2023-01-09T08:43:56.693Z,62.97
2023-01-09T08:45:59.275Z,63.95
2023-01-09T08:48:01.058Z,64.13
2023-01-09T08:50:02.873Z,66.90
2023-01-09T08:52:05.734Z,67.10
2023-01-09T08:54:07.396Z,69.32
2023-01-09T08:56:09.439Z,63.10
2023-01-09T08:58:11.244Z,60.95
2023-01-09T09:00:13.623Z,65.68
2023-01-09T09:02:15.765Z,64.40
2023-01-09T09:04:17.502Z,61.67
2023-01-09T09:06:19.178Z,65.10
2023-01-09T09:08:21.200Z,64.70
2023-01-09T09:10:24.777Z,61.47
2023-01-09T09:12:26.450Z,60.85
2023-01-09T09:14:28.416Z,58.75
2023-01-09T09:16:30.123Z,59.30
2023-01-09T09:18:31.883Z,65.72
2023-01-09T09:20:39.012Z,60.75
2023-01-09T09:22:40.797Z,53.58
2023-01-09T09:24:42.705Z,60.65
2023-01-09T09:26:44.825Z,68.13
2023-01-09T09:28:46.612Z,60.53
2023-01-09T09:30:48.318Z,61.95
2023-01-09T09:32:50.435Z,64.28
2023-01-09T09:34:52.170Z,65.55
2023-01-09T09:36:53.858Z,57.33
2023-01-09T09:38:55.992Z,63.22
2023-01-09T09:41:16.518Z,60.30
2023-01-09T09:43:33.310Z,58.45
2023-01-09T09:45:41.335Z,53.25
2023-01-09T09:48:07.659Z,62.55
2023-01-09T09:50:28.900Z,61.17
2023-01-09T09:52:56.359Z,57.70
2023-01-09T09:55:02.666Z,61.65
2023-01-09T09:57:05.390Z,62.85
2023-01-09T09:59:16.114Z,61.13
2023-01-09T10:01:33.360Z,60.65
2023-01-09T10:04:00.848Z,62.38
2023-01-09T10:06:31.047Z,64.90
2023-01-09T10:09:14.262Z,61.88
2023-01-09T10:11:24.892Z,57.42
2023-01-09T10:13:26.876Z,59.35
2023-01-09T10:15:46.391Z,61.47
2023-01-09T10:18:07.699Z,61.28
2023-01-09T10:20:37.298Z,65.55
2023-01-09T10:22:51.929Z,62.03
2023-01-09T10:25:02.779Z,66.28
2023-01-09T10:27:18.128Z,56.45
2023-01-09T10:29:22.655Z,62.95
2023-01-09T10:31:51.682Z,66.45
2023-01-09T10:34:22.514Z,63.17
2023-01-09T10:36:53.099Z,70.72
2023-01-09T10:38:58.823Z,71.50
2023-01-09T10:41:07.008Z,76.35
2023-01-09T10:43:34.730Z,71.57
2023-01-09T10:45:42.457Z,67.15
2023-01-09T10:47:45.283Z,62.50
2023-01-09T10:49:49.859Z,116.33
2023-01-09T10:52:05.324Z,79.53
2023-01-09T10:54:13.660Z,76.68
2023-01-09T10:56:26.463Z,105.57
2023-01-09T10:58:28.209Z,80.28
2023-01-09T11:00:30.172Z,68.03
2023-01-09T11:02:35.545Z,69.53
2023-01-09T11:04:39.644Z,72.95
2023-01-09T11:06:48.034Z,73.05
2023-01-09T11:08:55.625Z,77.50
2023-01-09T11:11:00.366Z,77.90
2023-01-09T11:13:27.258Z,79.47
2023-01-09T11:15:29.193Z,67.65
2023-01-09T11:17:30.954Z,76.78
2023-01-09T11:19:32.752Z,72.10
2023-01-09T11:21:39.201Z,75.35
2023-01-09T11:23:40.944Z,82.53
2023-01-09T11:25:53.097Z,83.47
2023-01-09T11:28:03.972Z,78.60
2023-01-09T11:30:15.668Z,72.47
2023-01-09T11:32:26.399Z,68.22
2023-01-09T11:34:31.918Z,72.57
2023-01-09T11:36:33.784Z,70.88
2023-01-09T11:38:51.106Z,71.25
2023-01-09T11:40:56.808Z,76.00
2023-01-09T11:43:13.629Z,118.57
2023-01-09T11:45:21.632Z,140.93
2023-01-09T11:47:40.615Z,128.85
2023-01-09T11:49:42.306Z,116.88
2023-01-09T11:51:44.657Z,115.97
2023-01-09T11:54:14.182Z,109.05
2023-01-09T11:56:17.707Z,81.82
2023-01-09T11:58:21.410Z,72.22
2023-01-09T12:02:47.486Z,88.28
2023-01-09T12:05:24.381Z,110.07
2023-01-09T12:07:55.911Z,124.72
2023-01-09T12:10:19.767Z,107.75
2023-01-09T12:12:44.729Z,96.32
2023-01-09T12:15:09.961Z,95.70
2023-01-09T12:17:14.411Z,110.43
2023-01-09T12:19:38.009Z,111.15
2023-01-09T12:21:58.668Z,74.78
2023-01-09T12:24:17.909Z,161.15
2023-01-09T12:26:24.625Z,126.75
2023-01-09T12:28:29.747Z,113.88
2023-01-09T12:30:45.359Z,89.03
2023-01-09T12:33:02.565Z,80.63
2023-01-09T12:35:21.244Z,73.35
2023-01-09T12:38:07.976Z,84.90
2023-01-09T12:40:15.826Z,102.38
2023-01-09T12:42:34.225Z,60.15
2023-01-09T12:44:49.586Z,67.40
2023-01-09T12:47:31.480Z,61.53
2023-01-09T12:49:37.833Z,62.58
2023-01-09T12:51:39.519Z,59.25
2023-01-09T12:53:51.326Z,64.13
2023-01-09T12:56:04.011Z,59.72
2023-01-09T12:58:28.237Z,68.55
2023-01-09T13:00:40.671Z,129.65
2023-01-09T13:03:07.229Z,61.35
2023-01-09T13:05:28.802Z,56.55
2023-01-09T13:07:38.177Z,123.85
2023-01-09T13:10:04.883Z,76.57
2023-01-09T13:12:19.490Z,188.27
2023-01-09T13:14:36.609Z,67.03
2023-01-09T13:16:45.003Z,77.95
2023-01-09T13:19:06.264Z,75.63
2023-01-09T13:21:09.441Z,93.65
2023-01-09T13:23:33.282Z,87.72
2023-01-09T13:25:40.960Z,97.70
2023-01-09T13:27:49.201Z,76.45
2023-01-09T13:30:06.949Z,78.50
2023-01-09T13:32:33.490Z,92.38
2023-01-09T13:34:37.240Z,84.18
2023-01-09T13:36:45.950Z,79.22
2023-01-09T13:38:49.983Z,68.57
2023-01-09T13:41:21.477Z,70.50
2023-01-09T13:43:23.151Z,82.13
2023-01-09T13:45:28.150Z,75.43
2023-01-09T13:47:29.937Z,243.10
2023-01-09T13:49:37.239Z,93.95
2023-01-09T13:51:41.907Z,114.68
2023-01-09T13:53:45.775Z,181.52
2023-01-09T13:55:59.595Z,116.90
2023-01-09T14:00:12.385Z,68.93
2023-01-09T14:02:32.732Z,66.05
2023-01-09T14:04:41.657Z,66.03
2023-01-09T14:07:15.272Z,75.45
2023-01-09T14:09:22.745Z,92.78
2023-01-09T14:11:25.138Z,114.55
2023-01-09T14:13:49.139Z,158.07
2023-01-09T14:15:52.949Z,136.95
2023-01-09T14:18:07.407Z,93.60
2023-01-09T14:20:30.681Z,92.13
2023-01-09T14:22:45.464Z,100.93
2023-01-09T14:25:04.470Z,101.53
2023-01-09T14:27:44.447Z,88.07
2023-01-09T14:29:46.362Z,98.85
2023-01-09T14:31:48.430Z,91.93
2023-01-09T14:33:50.398Z,97.80
2023-01-09T14:36:17.088Z,104.13
2023-01-09T14:38:43.721Z,114.30
2023-01-09T14:40:54.480Z,115.45
2023-01-09T14:43:01.270Z,114.03
2023-01-09T14:45:06.574Z,101.90
2023-01-09T14:47:37.375Z,110.50
2023-01-09T14:49:45.537Z,111.78
2023-01-09T14:51:49.841Z,97.28
2023-01-09T14:53:53.508Z,89.22
2023-01-09T14:58:10.706Z,97.18
2023-01-09T15:00:12.458Z,144.80
2023-01-09T15:02:14.454Z,224.52
2023-01-09T15:04:33.555Z,221.57
2023-01-09T15:06:41.317Z,228.55
2023-01-09T15:08:46.591Z,172.88
2023-01-09T15:10:50.744Z,388.30
2023-01-09T15:12:55.898Z,224.40
2023-01-09T15:15:01.440Z,310.48
2023-01-09T15:17:04.469Z,161.35
2023-01-09T15:19:08.755Z,272.27
2023-01-09T15:21:20.158Z,402.83
2023-01-09T15:23:24.849Z,439.20
2023-01-09T15:25:38.587Z,241.45
2023-01-09T15:27:48.593Z,176.73
2023-01-09T15:29:52.071Z,90.10
2023-01-09T15:32:06.751Z,65.35
2023-01-09T15:34:22.743Z,216.88
2023-01-09T15:36:28.419Z,133.85
2023-01-09T15:38:32.809Z,178.43
2023-01-09T15:40:34.805Z,80.10
2023-01-09T15:42:40.197Z,62.55
2023-01-09T15:44:45.548Z,99.82
2023-01-09T15:46:48.932Z,64.90
2023-01-09T15:48:54.294Z,70.07
2023-01-09T15:51:01.549Z,91.22
2023-01-09T15:53:03.307Z,146.10
2023-01-09T15:55:36.735Z,93.70
2023-01-09T15:57:38.558Z,89.28
2023-01-09T15:59:40.243Z,149.57
2023-01-09T16:01:42.221Z,128.43
2023-01-09T16:03:44.024Z,256.67
2023-01-09T16:05:52.077Z,218.48
2023-01-09T16:07:53.858Z,249.52
2023-01-09T16:10:04.847Z,301.60
2023-01-09T16:12:06.883Z,128.80
2023-01-09T16:14:21.312Z,120.88
2023-01-09T16:16:32.705Z,301.05
2023-01-09T16:18:37.459Z,112.13
2023-01-09T16:20:39.562Z,96.75
2023-01-09T16:22:55.967Z,88.38
2023-01-09T16:25:03.047Z,103.57
2023-01-09T16:27:32.133Z,202.18
2023-01-09T16:29:38.663Z,133.40
2023-01-09T16:31:40.463Z,86.82
2023-01-09T16:33:48.139Z,103.75
2023-01-09T16:35:50.981Z,69.57
2023-01-09T16:37:52.649Z,77.72
2023-01-09T16:40:16.337Z,348.23
2023-01-09T16:42:18.090Z,320.10
2023-01-09T16:44:19.959Z,748.13
2023-01-09T16:46:22.270Z,672.97
2023-01-09T16:48:24.045Z,563.92
2023-01-09T16:50:26.119Z,359.95
2023-01-09T16:52:29.569Z,368.83
2023-01-09T16:54:31.251Z,171.05
2023-01-09T16:56:33.233Z,196.63
2023-01-09T16:58:36.370Z,215.73
2023-01-09T17:00:38.128Z,94.30
2023-01-09T17:02:39.865Z,139.13
2023-01-09T17:04:41.730Z,131.07
2023-01-09T17:06:44.852Z,128.40
2023-01-09T17:08:46.613Z,144.70
2023-01-09T17:10:50.024Z,102.95
2023-01-09T17:12:51.798Z,100.03
2023-01-09T17:14:53.715Z,106.50
2023-01-09T17:16:55.663Z,772.10
2023-01-09T17:18:57.399Z,84.35
2023-01-09T17:20:59.065Z,89.00
2023-01-09T17:23:00.847Z,80.03
2023-01-09T17:25:02.565Z,98.45
2023-01-09T17:27:04.327Z,106.88
2023-01-09T17:29:06.677Z,91.85
2023-01-09T17:31:11.920Z,90.43
2023-01-09T17:33:18.318Z,104.65
2023-01-09T17:35:20.239Z,133.77
2023-01-09T17:37:22.091Z,91.65
2023-01-09T17:39:23.876Z,129.95
2023-01-09T17:41:30.803Z,119.00
2023-01-09T17:43:32.559Z,145.90
2023-01-09T17:45:34.325Z,99.38
2023-01-09T17:47:36.559Z,120.10
2023-01-09T17:49:38.249Z,90.03
2023-01-09T17:51:39.930Z,99.32
2023-01-09T17:53:42.027Z,87.25
2023-01-09T17:55:43.904Z,337.08
2023-01-09T17:57:45.610Z,431.27
2023-01-09T17:59:47.444Z,104.65
2023-01-09T18:01:49.179Z,98.97
2023-01-09T18:03:50.950Z,504.77
2023-01-09T18:05:53.438Z,408.55
2023-01-09T18:07:55.175Z,129.07
2023-01-09T18:09:57.401Z,226.30
2023-01-09T18:11:59.284Z,496.15
2023-01-09T18:14:01.071Z,220.80
2023-01-09T18:16:02.825Z,126.78
2023-01-09T18:18:05.224Z,227.98
2023-01-09T18:20:07.731Z,272.92
2023-01-09T18:22:09.486Z,188.50
2023-01-09T18:24:11.323Z,173.07
2023-01-09T18:26:13.826Z,94.00
2023-01-09T18:28:16.268Z,156.18
2023-01-09T18:30:18.276Z,78.80
2023-01-09T18:32:19.950Z,149.07
2023-01-09T18:34:21.695Z,111.47
2023-01-09T18:36:28.628Z,501.25
2023-01-09T18:38:30.375Z,546.03
2023-01-09T18:40:32.197Z,1157.43
2023-01-09T18:42:34.023Z,907.88
2023-01-09T18:44:37.274Z,566.20
2023-01-09T18:46:39.402Z,416.83
2023-01-09T18:48:41.236Z,304.83
2023-01-09T18:50:42.980Z,277.90
2023-01-09T18:52:44.650Z,210.90
2023-01-09T18:54:46.855Z,241.23
2023-01-09T18:56:48.708Z,167.60
2023-01-09T18:58:55.042Z,158.45
2023-01-09T19:00:56.926Z,338.50
2023-01-09T19:02:58.653Z,130.25
2023-01-09T19:05:00.330Z,144.43
2023-01-09T19:07:02.199Z,264.77
2023-01-09T19:09:04.205Z,114.25
2023-01-09T19:11:06.211Z,246.52
2023-01-09T19:13:07.936Z,151.07
2023-01-09T19:15:10.120Z,146.95
2023-01-09T19:17:11.841Z,133.63
2023-01-09T19:19:13.962Z,146.90
2023-01-09T19:21:20.762Z,159.95
2023-01-09T19:23:23.219Z,236.32
2023-01-09T19:25:25.064Z,151.32
2023-01-09T19:27:29.452Z,115.70
2023-01-09T19:29:31.141Z,134.15
2023-01-09T19:31:34.607Z,124.18
2023-01-09T19:33:37.492Z,113.90
2023-01-09T19:35:39.516Z,114.70
2023-01-09T19:37:41.302Z,105.68
2023-01-09T19:39:42.958Z,107.60
2023-01-09T19:41:44.746Z,111.07
2023-01-09T19:43:47.537Z,114.20
2023-01-09T19:45:49.320Z,95.30
2023-01-09T19:47:51.285Z,127.60
2023-01-09T19:49:52.982Z,101.05
2023-01-09T19:51:54.826Z,100.25
2023-01-09T19:53:58.214Z,97.75
2023-01-09T19:56:17.706Z,100.53
2023-01-09T19:58:19.429Z,103.93
2023-01-09T20:00:21.153Z,96.40
2023-01-09T20:02:22.956Z,97.30
2023-01-09T20:04:24.924Z,104.63
2023-01-09T20:06:26.590Z,107.53
2023-01-09T20:08:28.264Z,102.30
2023-01-09T20:10:29.998Z,88.22
2023-01-09T20:12:32.348Z,100.28
2023-01-09T20:14:34.144Z,92.65
2023-01-09T20:16:35.964Z,91.15
2023-01-09T20:18:37.680Z,93.97
2023-01-09T20:22:40.971Z,101.88
2023-01-09T20:24:42.673Z,104.03
2023-01-09T20:26:44.780Z,95.90
2023-01-09T20:28:47.410Z,100.00
2023-01-09T20:30:51.399Z,91.15
2023-01-09T20:32:53.070Z,99.13
2023-01-09T20:34:55.462Z,91.65
2023-01-09T20:36:57.245Z,90.50
2023-01-09T20:39:02.128Z,89.65
2023-01-09T20:41:08.901Z,87.57
2023-01-09T20:43:14.939Z,87.10
2023-01-09T20:45:16.790Z,89.43
2023-01-09T20:47:18.671Z,79.97
2023-01-09T20:49:20.896Z,81.85
2023-01-09T20:51:22.863Z,82.97
2023-01-09T20:53:24.725Z,82.20
2023-01-09T20:55:26.429Z,77.15
2023-01-09T20:57:29.349Z,85.85
2023-01-09T20:59:31.208Z,84.40
2023-01-09T21:01:33.007Z,89.32
2023-01-09T21:03:34.803Z,80.95
2023-01-09T21:05:40.546Z,78.85
2023-01-09T21:07:42.279Z,80.50
2023-01-09T21:09:43.978Z,84.95
2023-01-09T21:11:45.719Z,85.97
2023-01-09T21:13:47.456Z,99.15
2023-01-09T21:15:49.325Z,101.95
2023-01-09T21:17:51.036Z,94.78
2023-01-09T21:19:52.723Z,107.05
2023-01-09T21:21:54.456Z,99.90
2023-01-09T21:23:58.383Z,87.32
2023-01-09T21:26:00.517Z,94.93
2023-01-09T21:28:02.796Z,88.50
2023-01-09T21:30:06.532Z,91.97
2023-01-09T21:32:08.334Z,96.20
2023-01-09T21:34:11.845Z,94.25
2023-01-09T21:36:14.489Z,96.85
2023-01-09T21:38:16.215Z,88.80
2023-01-09T21:40:18.003Z,91.03
2023-01-09T21:42:19.959Z,85.13
2023-01-09T21:44:21.659Z,92.30
2023-01-09T21:46:23.445Z,87.05
2023-01-09T21:48:25.289Z,92.55
2023-01-09T21:50:28.093Z,89.53
2023-01-09T21:52:29.807Z,94.30
2023-01-09T21:54:32.887Z,85.13
2023-01-09T21:56:34.828Z,86.45
2023-01-09T21:58:36.551Z,85.47
2023-01-09T22:00:38.290Z,83.40
2023-01-09T22:02:40.127Z,87.38
2023-01-09T22:04:43.423Z,86.65
2023-01-09T22:06:45.321Z,86.47
2023-01-09T22:08:47.023Z,84.18
2023-01-09T22:10:55.549Z,81.65
2023-01-09T22:12:57.219Z,81.82
2023-01-09T22:15:04.019Z,82.60
2023-01-09T22:17:05.790Z,78.18
2023-01-09T22:19:07.570Z,76.93
2023-01-09T22:21:09.379Z,84.85
2023-01-09T22:23:11.459Z,81.95
2023-01-09T22:25:13.348Z,103.85
2023-01-09T22:27:15.167Z,103.93
2023-01-09T22:29:16.854Z,142.85
2023-01-09T22:31:22.521Z,135.93
2023-01-09T22:33:25.303Z,103.40
2023-01-09T22:35:27.215Z,374.23
2023-01-09T22:37:29.006Z,166.48
2023-01-09T22:39:30.675Z,109.43
2023-01-09T22:41:32.420Z,89.68
2023-01-09T22:43:34.124Z,75.60
2023-01-09T22:45:35.834Z,86.07
2023-01-09T22:47:37.605Z,74.93
2023-01-09T22:49:52.268Z,67.55
2023-01-09T22:51:54.259Z,79.20
2023-01-09T22:53:56.003Z,75.20
2023-01-09T22:55:59.259Z,84.13
2023-01-09T22:58:00.975Z,74.30
2023-01-09T23:00:03.049Z,88.82
2023-01-09T23:02:04.983Z,87.40
2023-01-09T23:04:06.771Z,88.00
2023-01-09T23:06:12.684Z,94.05
2023-01-09T23:08:15.045Z,82.93
2023-01-09T23:10:16.884Z,79.28
2023-01-09T23:12:19.713Z,67.88
2023-01-09T23:14:22.036Z,74.77
2023-01-09T23:16:23.833Z,73.95
2023-01-09T23:18:25.864Z,66.90
2023-01-09T23:20:27.601Z,90.32
2023-01-09T23:22:29.325Z,87.80
2023-01-09T23:24:32.843Z,93.55
2023-01-09T23:26:38.261Z,79.38
2023-01-09T23:28:40.372Z,69.45
2023-01-09T23:30:42.159Z,68.35
2023-01-09T23:32:44.066Z,66.38
2023-01-09T23:34:45.814Z,82.45
2023-01-09T23:36:47.689Z,78.20
2023-01-09T23:38:49.734Z,73.43
2023-01-09T23:40:56.128Z,70.63
2023-01-09T23:42:57.869Z,84.95
2023-01-09T23:44:59.583Z,63.80
2023-01-09T23:47:01.265Z,80.78
2023-01-09T23:49:02.997Z,73.97
2023-01-09T23:51:04.859Z,68.60
2023-01-09T23:53:06.539Z,78.30
2023-01-09T23:55:08.474Z,64.60
2023-01-09T23:57:10.287Z,70.22
2023-01-09T23:59:13.060Z,72.38
